עמוד ראשי
METAR-TAF:

METAR-TAF

שדות תעופה :

Cross City, פלורידה, ארצות הברית

קו רוחב: 29-33-00N, קו אורך: 083-06-19W, גובה: 12מטר

תצפית מזג אוויר נוכחית

הדו"ח נערך לפני 32דקות, בשעה 19:35 UTC
רוח 13קשר מכיוון מזרח/צפון-מזרח עם משבים עד 21קשר
טמפרטורת 34 צלסיוס
לחות 39%
לחץ 1016 hPa
ראות: 16.1קילומטר
שמיים נקיים

METAR: KCTY 171935Z AUTO 07013G21KT 10SM CLR 34/18 A3001 RMK AO2

זמן: 16:07 (20:07 UTC)


TAF: חסר

תצפיות ותחזיות מזג אוויר לגבי יותר מ- 4,000 שדות תעופה ברחבי העולם. דוחות METAR ו- TAF.

התחנות הזמינות מסומנות בנקודות צהובות ואדומות על גבי המפה.

העבר את העכבר לנקודה הצבעונית על מנת לראות את שם התחנה.

לאחר מכן, לחץ כדי לראות את תוכן ואת תחזיות מזג האוויר.

כדי לשנות את המפה: לחץ על הכפתורים הירוקים עם הפלוס השחור כדי להתקרב; על הכפתור הירוק עם המקף כדי להתרחק; או בחיצים הירוקים למפות סמוכות.


METAR-TAF: